Gillam Airport

CYGX · 加拿大

罗盘
风向 的 风向 030° Gillam Airport 5/23
风: 17 kt, 5 beaufort

16 kt

5 kt
改变
0 ft 1.000 2.000 3.000 4.000 5.000
Cloud Cloud Cloud Cloud Cloud Cloud Cloud Cloud
OVC 1.000
METAR CYGX 200600Z 03017KT 1 3/4SM -DZ OVC010 00/00 A2989 RMK DZ3ST5 SLP134

METAR Gillam Airport - CYGX/YGX

该字段位于加拿大中。 该机场位于纬度56,35722和经度-94,71142。 该机场有一条跑道: 5/23. 本场的ICAO机场代码为CYGX。 该机场的IATA代码为YGX。 机场在Winnipeg FIR中。

该航空气象观测是针对Gillam Airport在2024年5月20日 01:00, 当地时间进行的。

机场观察

风向为030°,速度为17 kt。

可见度为1¾ mi。

有乌云密布在1.000 ft的高度。 破损或更高的上限为1.000 ft。

当前天气为光 细雨。 温度为0 °C,阵风为-9 °C。 海平面上的气压为29,89 inHg (QNH)。

白天

今天,太阳从04:53升起,在21:37降落。 这适用于Gillam Airport,世界夏令时可能有所不同。 当地时间与世界标准时间之间的时差为-5 小时。 夏令时目前正在进行中。

公司介绍

我们没有关于这个机场的公司信息。

体会

到Vliegles.nl去找飞行课程,跳伞和其他飞行体验。 浏览页面,了解Gillam Airport附近所有可用的活动。 你也可以使用搜索功能来寻找你所在地附近的特定飞行课程、跳伞或其他飞行体验。

跑道

Id 标题 侧风 逆风 侧风 %
5/23 047°-227° 5 kt 16 kt 29 %

逆风成分最大的方向会被突出显示,并用于横风计算。 这并不一定意味着这个方向在使用。

乌云

1.000 ft OVC 乌云密布

温度 & 天气

天气 光 细雨
温度 0 °C
露点 0 °C
相对湿度 100%
风寒 -9 °C
Kp-index 1 (0-9)

评论

SLP134海平面压力为29,93 inHg (29,93 inHg)
DZ3ST5

白天

日出
04:53 (3:26)
中午
13:15
日落
21:37

小工具

你想在你的网站上有一个关于Gillam Airport的当前航空天气(METAR)的小部件吗?

显示HTML代码
报告变更